sensor_id;sensor_type;location;lat;lon;timestamp;temperature;humidity
8099;DHT22;4092;47.876;9.372;2022-08-03T00:00:54;18.00;99.90
8099;DHT22;4092;47.876;9.372;2022-08-03T00:03:22;17.90;99.90
8099;DHT22;4092;47.876;9.372;2022-08-03T00:05:49;17.90;99.90
8099;DHT22;4092;47.876;9.372;2022-08-03T00:08:16;18.00;99.90
8099;DHT22;4092;47.876;9.372;2022-08-03T00:10:43;18.10;99.90
8099;DHT22;4092;47.876;9.372;2022-08-03T00:13:11;18.20;99.90
8099;DHT22;4092;47.876;9.372;2022-08-03T00:15:39;18.10;99.90
8099;DHT22;4092;47.876;9.372;2022-08-03T00:18:07;18.10;99.90
8099;DHT22;4092;47.876;9.372;2022-08-03T00:20:34;18.00;99.90
8099;DHT22;4092;47.876;9.372;2022-08-03T00:23:01;17.90;99.90
8099;DHT22;4092;47.876;9.372;2022-08-03T00:25:28;17.90;99.90
8099;DHT22;4092;47.876;9.372;2022-08-03T00:27:55;17.90;99.90
8099;DHT22;4092;47.876;9.372;2022-08-03T00:30:24;17.90;99.90
8099;DHT22;4092;47.876;9.372;2022-08-03T00:32:51;17.80;99.90
8099;DHT22;4092;47.876;9.372;2022-08-03T00:35:18;17.70;99.90
8099;DHT22;4092;47.876;9.372;2022-08-03T00:37:45;17.70;99.90
8099;DHT22;4092;47.876;9.372;2022-08-03T00:40:13;17.60;99.90
8099;DHT22;4092;47.876;9.372;2022-08-03T00:42:52;17.60;99.90
8099;DHT22;4092;47.876;9.372;2022-08-03T00:45:21;17.60;99.90
8099;DHT22;4092;47.876;9.372;2022-08-03T00:47:50;17.60;99.90
8099;DHT22;4092;47.876;9.372;2022-08-03T00:50:18;17.50;99.90
8099;DHT22;4092;47.876;9.372;2022-08-03T00:52:47;17.40;99.90
8099;DHT22;4092;47.876;9.372;2022-08-03T00:55:15;17.30;99.90
8099;DHT22;4092;47.876;9.372;2022-08-03T00:57:43;17.30;99.90
8099;DHT22;4092;47.876;9.372;2022-08-03T01:00:14;17.30;99.90
8099;DHT22;4092;47.876;9.372;2022-08-03T01:02:41;17.30;99.90
8099;DHT22;4092;47.876;9.372;2022-08-03T01:05:10;17.20;99.90
8099;DHT22;4092;47.876;9.372;2022-08-03T01:07:45;17.20;99.90
8099;DHT22;4092;47.876;9.372;2022-08-03T01:10:23;17.20;99.90
8099;DHT22;4092;47.876;9.372;2022-08-03T01:12:57;17.20;99.90
8099;DHT22;4092;47.876;9.372;2022-08-03T01:15:30;17.10;99.90
8099;DHT22;4092;47.876;9.372;2022-08-03T01:18:06;17.00;99.90
8099;DHT22;4092;47.876;9.372;2022-08-03T01:20:38;17.00;99.90
8099;DHT22;4092;47.876;9.372;2022-08-03T01:23:21;17.00;99.90
8099;DHT22;4092;47.876;9.372;2022-08-03T01:26:02;16.90;99.90
8099;DHT22;4092;47.876;9.372;2022-08-03T01:28:45;16.90;99.90
8099;DHT22;4092;47.876;9.372;2022-08-03T01:31:19;16.90;99.90
8099;DHT22;4092;47.876;9.372;2022-08-03T01:33:51;16.90;99.90
8099;DHT22;4092;47.876;9.372;2022-08-03T01:36:23;16.90;99.90
8099;DHT22;4092;47.876;9.372;2022-08-03T01:38:59;17.00;99.90
8099;DHT22;4092;47.876;9.372;2022-08-03T01:41:30;17.00;99.90
8099;DHT22;4092;47.876;9.372;2022-08-03T01:43:59;17.00;99.90
8099;DHT22;4092;47.876;9.372;2022-08-03T01:46:30;17.00;99.90
8099;DHT22;4092;47.876;9.372;2022-08-03T01:48:58;17.00;99.90
8099;DHT22;4092;47.876;9.372;2022-08-03T01:51:26;17.10;99.90
8099;DHT22;4092;47.876;9.372;2022-08-03T01:53:54;17.00;99.90
8099;DHT22;4092;47.876;9.372;2022-08-03T01:56:23;16.90;99.90
8099;DHT22;4092;47.876;9.372;2022-08-03T01:58:52;16.80;99.90
8099;DHT22;4092;47.876;9.372;2022-08-03T02:01:20;16.80;99.90
8099;DHT22;4092;47.876;9.372;2022-08-03T02:03:50;16.80;99.90
8099;DHT22;4092;47.876;9.372;2022-08-03T02:06:19;16.70;99.90
8099;DHT22;4092;47.876;9.372;2022-08-03T02:08:48;16.70;99.90
8099;DHT22;4092;47.876;9.372;2022-08-03T02:11:18;16.70;99.90
8099;DHT22;4092;47.876;9.372;2022-08-03T02:13:46;16.60;99.90
8099;DHT22;4092;47.876;9.372;2022-08-03T02:16:14;16.60;99.90
8099;DHT22;4092;47.876;9.372;2022-08-03T02:18:43;16.50;99.90
8099;DHT22;4092;47.876;9.372;2022-08-03T02:21:12;16.50;99.90
8099;DHT22;4092;47.876;9.372;2022-08-03T02:23:40;16.40;99.90
8099;DHT22;4092;47.876;9.372;2022-08-03T02:26:14;16.40;99.90
8099;DHT22;4092;47.876;9.372;2022-08-03T02:28:46;16.40;99.90
8099;DHT22;4092;47.876;9.372;2022-08-03T02:31:22;16.40;99.90
8099;DHT22;4092;47.876;9.372;2022-08-03T02:33:52;16.30;99.90
8099;DHT22;4092;47.876;9.372;2022-08-03T02:36:24;16.20;99.90
8099;DHT22;4092;47.876;9.372;2022-08-03T02:38:54;16.30;99.90
8099;DHT22;4092;47.876;9.372;2022-08-03T02:41:23;16.20;99.90
8099;DHT22;4092;47.876;9.372;2022-08-03T02:43:54;16.20;99.90
8099;DHT22;4092;47.876;9.372;2022-08-03T02:46:32;16.20;99.90
8099;DHT22;4092;47.876;9.372;2022-08-03T02:49:01;16.20;99.90
8099;DHT22;4092;47.876;9.372;2022-08-03T02:51:32;16.10;99.90
8099;DHT22;4092;47.876;9.372;2022-08-03T02:54:02;16.10;99.90
8099;DHT22;4092;47.876;9.372;2022-08-03T02:56:30;16.10;99.90
8099;DHT22;4092;47.876;9.372;2022-08-03T02:58:58;16.20;99.90
8099;DHT22;4092;47.876;9.372;2022-08-03T03:01:27;16.20;99.90
8099;DHT22;4092;47.876;9.372;2022-08-03T03:03:56;16.20;99.90
8099;DHT22;4092;47.876;9.372;2022-08-03T03:06:24;16.20;99.90
8099;DHT22;4092;47.876;9.372;2022-08-03T03:08:55;16.10;99.90
8099;DHT22;4092;47.876;9.372;2022-08-03T03:11:22;16.10;99.90
8099;DHT22;4092;47.876;9.372;2022-08-03T03:13:51;16.00;99.90
8099;DHT22;4092;47.876;9.372;2022-08-03T03:16:19;16.00;99.90
8099;DHT22;4092;47.876;9.372;2022-08-03T03:18:47;16.00;99.90
8099;DHT22;4092;47.876;9.372;2022-08-03T03:21:17;16.00;99.90
8099;DHT22;4092;47.876;9.372;2022-08-03T03:23:46;16.00;99.90
8099;DHT22;4092;47.876;9.372;2022-08-03T03:26:15;16.00;99.90
8099;DHT22;4092;47.876;9.372;2022-08-03T03:28:42;16.00;99.90
8099;DHT22;4092;47.876;9.372;2022-08-03T03:31:09;16.00;99.90
8099;DHT22;4092;47.876;9.372;2022-08-03T03:33:37;16.10;99.90
8099;DHT22;4092;47.876;9.372;2022-08-03T03:36:05;16.10;99.90
8099;DHT22;4092;47.876;9.372;2022-08-03T03:38:33;16.10;99.90
8099;DHT22;4092;47.876;9.372;2022-08-03T03:41:00;16.00;99.90
8099;DHT22;4092;47.876;9.372;2022-08-03T03:43:29;16.00;99.90
8099;DHT22;4092;47.876;9.372;2022-08-03T03:45:56;15.90;99.90
8099;DHT22;4092;47.876;9.372;2022-08-03T03:48:24;15.90;99.90
8099;DHT22;4092;47.876;9.372;2022-08-03T03:50:52;15.90;99.90
8099;DHT22;4092;47.876;9.372;2022-08-03T03:53:19;15.90;99.90
8099;DHT22;4092;47.876;9.372;2022-08-03T03:55:46;15.80;99.90
8099;DHT22;4092;47.876;9.372;2022-08-03T03:58:13;15.80;99.90
8099;DHT22;4092;47.876;9.372;2022-08-03T04:00:41;15.80;99.90
8099;DHT22;4092;47.876;9.372;2022-08-03T04:03:10;15.80;99.90
8099;DHT22;4092;47.876;9.372;2022-08-03T04:05:37;15.80;99.90
8099;DHT22;4092;47.876;9.372;2022-08-03T04:08:22;15.70;99.90
8099;DHT22;4092;47.876;9.372;2022-08-03T04:11:13;15.70;99.90
8099;DHT22;4092;47.876;9.372;2022-08-03T04:13:45;15.70;99.90
8099;DHT22;4092;47.876;9.372;2022-08-03T04:16:17;15.70;99.90
8099;DHT22;4092;47.876;9.372;2022-08-03T04:18:51;15.70;99.90
8099;DHT22;4092;47.876;9.372;2022-08-03T04:21:20;15.70;99.90
8099;DHT22;4092;47.876;9.372;2022-08-03T04:23:51;15.70;99.90
8099;DHT22;4092;47.876;9.372;2022-08-03T04:26:20;15.70;99.90
8099;DHT22;4092;47.876;9.372;2022-08-03T04:28:48;15.70;99.90
8099;DHT22;4092;47.876;9.372;2022-08-03T04:31:20;15.60;99.90
8099;DHT22;4092;47.876;9.372;2022-08-03T04:33:48;15.70;99.90
8099;DHT22;4092;47.876;9.372;2022-08-03T04:36:20;15.60;99.90
8099;DHT22;4092;47.876;9.372;2022-08-03T04:38:54;15.70;99.90
8099;DHT22;4092;47.876;9.372;2022-08-03T04:41:24;15.80;99.90
8099;DHT22;4092;47.876;9.372;2022-08-03T04:43:54;15.80;99.90
8099;DHT22;4092;47.876;9.372;2022-08-03T04:46:26;15.90;99.90
8099;DHT22;4092;47.876;9.372;2022-08-03T04:48:54;15.90;99.90
8099;DHT22;4092;47.876;9.372;2022-08-03T04:51:21;15.90;99.90
8099;DHT22;4092;47.876;9.372;2022-08-03T04:53:49;15.90;99.90
8099;DHT22;4092;47.876;9.372;2022-08-03T04:56:16;16.00;99.90
8099;DHT22;4092;47.876;9.372;2022-08-03T04:58:43;16.00;99.90
8099;DHT22;4092;47.876;9.372;2022-08-03T05:01:10;16.10;99.90
8099;DHT22;4092;47.876;9.372;2022-08-03T05:03:38;16.10;99.90
8099;DHT22;4092;47.876;9.372;2022-08-03T05:06:06;16.20;99.90
8099;DHT22;4092;47.876;9.372;2022-08-03T05:08:33;16.20;99.90
8099;DHT22;4092;47.876;9.372;2022-08-03T05:11:00;16.30;99.90
8099;DHT22;4092;47.876;9.372;2022-08-03T05:13:27;16.40;99.90
8099;DHT22;4092;47.876;9.372;2022-08-03T05:15:54;16.40;99.90
8099;DHT22;4092;47.876;9.372;2022-08-03T05:18:21;16.50;99.90
8099;DHT22;4092;47.876;9.372;2022-08-03T05:20:49;16.50;99.90
8099;DHT22;4092;47.876;9.372;2022-08-03T05:23:17;16.60;99.90
8099;DHT22;4092;47.876;9.372;2022-08-03T05:25:44;16.70;99.90
8099;DHT22;4092;47.876;9.372;2022-08-03T05:28:11;16.80;99.90
8099;DHT22;4092;47.876;9.372;2022-08-03T05:30:38;16.80;99.90
8099;DHT22;4092;47.876;9.372;2022-08-03T05:33:05;16.90;99.90
8099;DHT22;4092;47.876;9.372;2022-08-03T05:35:33;17.00;99.90
8099;DHT22;4092;47.876;9.372;2022-08-03T05:38:02;17.20;99.90
8099;DHT22;4092;47.876;9.372;2022-08-03T05:40:29;17.30;99.90
8099;DHT22;4092;47.876;9.372;2022-08-03T05:42:56;17.40;99.90
8099;DHT22;4092;47.876;9.372;2022-08-03T05:45:24;17.50;99.90
8099;DHT22;4092;47.876;9.372;2022-08-03T05:47:51;17.60;99.90
8099;DHT22;4092;47.876;9.372;2022-08-03T05:50:19;17.80;99.90
8099;DHT22;4092;47.876;9.372;2022-08-03T05:52:46;17.90;99.90
8099;DHT22;4092;47.876;9.372;2022-08-03T05:55:15;17.90;99.90
8099;DHT22;4092;47.876;9.372;2022-08-03T05:57:45;18.10;99.90
8099;DHT22;4092;47.876;9.372;2022-08-03T06:00:13;18.10;99.90
8099;DHT22;4092;47.876;9.372;2022-08-03T06:02:40;18.20;99.90
8099;DHT22;4092;47.876;9.372;2022-08-03T06:05:08;18.30;99.90
8099;DHT22;4092;47.876;9.372;2022-08-03T06:07:35;18.40;99.90
8099;DHT22;4092;47.876;9.372;2022-08-03T06:10:03;18.50;99.90
8099;DHT22;4092;47.876;9.372;2022-08-03T06:12:32;18.60;99.90
8099;DHT22;4092;47.876;9.372;2022-08-03T06:15:01;18.70;99.90
8099;DHT22;4092;47.876;9.372;2022-08-03T06:17:28;18.70;99.90
8099;DHT22;4092;47.876;9.372;2022-08-03T06:19:55;18.80;99.90
8099;DHT22;4092;47.876;9.372;2022-08-03T06:22:22;18.90;99.90
8099;DHT22;4092;47.876;9.372;2022-08-03T06:24:49;19.10;99.90
8099;DHT22;4092;47.876;9.372;2022-08-03T06:27:17;19.10;99.90
8099;DHT22;4092;47.876;9.372;2022-08-03T06:29:45;19.30;99.90
8099;DHT22;4092;47.876;9.372;2022-08-03T06:32:12;19.30;99.90
8099;DHT22;4092;47.876;9.372;2022-08-03T06:34:39;19.40;99.90
8099;DHT22;4092;47.876;9.372;2022-08-03T06:37:06;19.50;99.90
8099;DHT22;4092;47.876;9.372;2022-08-03T06:39:33;19.60;99.90
8099;DHT22;4092;47.876;9.372;2022-08-03T06:42:00;19.70;99.90
8099;DHT22;4092;47.876;9.372;2022-08-03T06:44:28;19.80;99.90
8099;DHT22;4092;47.876;9.372;2022-08-03T06:46:56;19.90;99.90
8099;DHT22;4092;47.876;9.372;2022-08-03T06:49:24;20.00;99.90
8099;DHT22;4092;47.876;9.372;2022-08-03T06:51:51;20.20;99.90
8099;DHT22;4092;47.876;9.372;2022-08-03T06:54:18;20.20;99.90
8099;DHT22;4092;47.876;9.372;2022-08-03T06:56:47;20.30;99.90
8099;DHT22;4092;47.876;9.372;2022-08-03T06:59:14;20.40;99.90
8099;DHT22;4092;47.876;9.372;2022-08-03T07:01:41;20.40;99.90
8099;DHT22;4092;47.876;9.372;2022-08-03T07:04:09;20.50;99.90
8099;DHT22;4092;47.876;9.372;2022-08-03T07:06:36;20.60;99.90
8099;DHT22;4092;47.876;9.372;2022-08-03T07:09:04;20.60;99.90
8099;DHT22;4092;47.876;9.372;2022-08-03T07:11:31;20.70;99.90
8099;DHT22;4092;47.876;9.372;2022-08-03T07:13:58;20.80;99.90
8099;DHT22;4092;47.876;9.372;2022-08-03T07:16:26;20.90;99.90
8099;DHT22;4092;47.876;9.372;2022-08-03T07:18:53;21.00;99.90
8099;DHT22;4092;47.876;9.372;2022-08-03T07:21:21;21.10;99.90
8099;DHT22;4092;47.876;9.372;2022-08-03T07:23:48;21.10;99.90
8099;DHT22;4092;47.876;9.372;2022-08-03T07:26:15;21.30;99.90
8099;DHT22;4092;47.876;9.372;2022-08-03T07:28:43;21.40;99.90
8099;DHT22;4092;47.876;9.372;2022-08-03T07:31:10;21.50;99.90
8099;DHT22;4092;47.876;9.372;2022-08-03T07:33:37;21.60;99.90
8099;DHT22;4092;47.876;9.372;2022-08-03T07:36:04;21.70;99.90
8099;DHT22;4092;47.876;9.372;2022-08-03T07:38:34;21.80;99.90
8099;DHT22;4092;47.876;9.372;2022-08-03T07:41:01;21.90;99.90
8099;DHT22;4092;47.876;9.372;2022-08-03T07:43:28;22.00;99.90
8099;DHT22;4092;47.876;9.372;2022-08-03T07:45:56;22.10;99.90
8099;DHT22;4092;47.876;9.372;2022-08-03T07:48:23;22.10;99.90
8099;DHT22;4092;47.876;9.372;2022-08-03T07:50:53;22.20;99.90
8099;DHT22;4092;47.876;9.372;2022-08-03T07:53:23;22.20;99.90
8099;DHT22;4092;47.876;9.372;2022-08-03T07:55:54;22.30;99.90
8099;DHT22;4092;47.876;9.372;2022-08-03T07:58:25;22.40;99.90
8099;DHT22;4092;47.876;9.372;2022-08-03T08:00:52;22.50;99.90
8099;DHT22;4092;47.876;9.372;2022-08-03T08:03:19;22.60;99.90
8099;DHT22;4092;47.876;9.372;2022-08-03T08:05:47;22.70;99.90
8099;DHT22;4092;47.876;9.372;2022-08-03T08:08:14;22.80;99.90
8099;DHT22;4092;47.876;9.372;2022-08-03T08:10:41;22.90;99.90
8099;DHT22;4092;47.876;9.372;2022-08-03T08:13:13;23.00;99.90
8099;DHT22;4092;47.876;9.372;2022-08-03T08:15:40;23.10;99.90
8099;DHT22;4092;47.876;9.372;2022-08-03T08:18:07;23.20;99.90
8099;DHT22;4092;47.876;9.372;2022-08-03T08:20:35;23.30;99.90
8099;DHT22;4092;47.876;9.372;2022-08-03T08:23:04;23.40;99.90
8099;DHT22;4092;47.876;9.372;2022-08-03T08:25:31;23.40;99.90
8099;DHT22;4092;47.876;9.372;2022-08-03T08:27:59;23.40;99.90
8099;DHT22;4092;47.876;9.372;2022-08-03T08:30:30;23.50;99.90
8099;DHT22;4092;47.876;9.372;2022-08-03T08:32:57;23.60;99.90
8099;DHT22;4092;47.876;9.372;2022-08-03T08:35:24;23.70;99.90
8099;DHT22;4092;47.876;9.372;2022-08-03T08:37:51;23.80;99.90
8099;DHT22;4092;47.876;9.372;2022-08-03T08:40:20;24.00;99.90
8099;DHT22;4092;47.876;9.372;2022-08-03T08:42:47;24.10;99.90
8099;DHT22;4092;47.876;9.372;2022-08-03T08:45:15;24.20;99.90
8099;DHT22;4092;47.876;9.372;2022-08-03T08:47:47;24.30;99.90
8099;DHT22;4092;47.876;9.372;2022-08-03T08:50:19;24.40;99.90
8099;DHT22;4092;47.876;9.372;2022-08-03T08:52:48;24.50;99.90
8099;DHT22;4092;47.876;9.372;2022-08-03T08:55:21;24.50;99.90
8099;DHT22;4092;47.876;9.372;2022-08-03T08:57:49;24.60;99.90
8099;DHT22;4092;47.876;9.372;2022-08-03T09:00:18;24.60;99.90
8099;DHT22;4092;47.876;9.372;2022-08-03T09:02:46;24.70;99.90
8099;DHT22;4092;47.876;9.372;2022-08-03T09:05:14;24.80;99.90
8099;DHT22;4092;47.876;9.372;2022-08-03T09:07:42;24.80;99.90
8099;DHT22;4092;47.876;9.372;2022-08-03T09:10:10;24.90;99.90
8099;DHT22;4092;47.876;9.372;2022-08-03T09:12:38;24.90;99.90
8099;DHT22;4092;47.876;9.372;2022-08-03T09:15:21;25.00;99.90
8099;DHT22;4092;47.876;9.372;2022-08-03T09:17:53;25.20;99.90
8099;DHT22;4092;47.876;9.372;2022-08-03T09:20:22;25.20;99.90
8099;DHT22;4092;47.876;9.372;2022-08-03T09:22:57;25.30;99.90
8099;DHT22;4092;47.876;9.372;2022-08-03T09:25:31;25.40;99.90
8099;DHT22;4092;47.876;9.372;2022-08-03T09:28:07;25.50;99.90
8099;DHT22;4092;47.876;9.372;2022-08-03T09:30:36;25.60;99.90
8099;DHT22;4092;47.876;9.372;2022-08-03T09:33:06;25.60;99.90
8099;DHT22;4092;47.876;9.372;2022-08-03T09:35:39;25.70;99.90
8099;DHT22;4092;47.876;9.372;2022-08-03T09:38:11;25.70;99.90
8099;DHT22;4092;47.876;9.372;2022-08-03T09:40:39;25.90;99.90
8099;DHT22;4092;47.876;9.372;2022-08-03T09:43:06;26.10;99.90
8099;DHT22;4092;47.876;9.372;2022-08-03T09:45:34;26.10;99.90
8099;DHT22;4092;47.876;9.372;2022-08-03T09:48:24;26.20;99.90
8099;DHT22;4092;47.876;9.372;2022-08-03T09:50:52;26.40;99.90
8099;DHT22;4092;47.876;9.372;2022-08-03T09:53:20;26.40;99.90
8099;DHT22;4092;47.876;9.372;2022-08-03T09:55:52;26.50;99.90
8099;DHT22;4092;47.876;9.372;2022-08-03T09:58:20;26.50;99.90
8099;DHT22;4092;47.876;9.372;2022-08-03T10:00:55;26.50;99.90
8099;DHT22;4092;47.876;9.372;2022-08-03T10:03:26;26.60;99.90
8099;DHT22;4092;47.876;9.372;2022-08-03T10:05:53;26.60;99.90
8099;DHT22;4092;47.876;9.372;2022-08-03T10:08:21;26.70;99.90
8099;DHT22;4092;47.876;9.372;2022-08-03T10:10:51;26.70;99.90
8099;DHT22;4092;47.876;9.372;2022-08-03T10:13:20;26.80;99.90
8099;DHT22;4092;47.876;9.372;2022-08-03T10:15:47;26.90;99.90
8099;DHT22;4092;47.876;9.372;2022-08-03T10:18:15;27.00;99.90
8099;DHT22;4092;47.876;9.372;2022-08-03T10:20:47;27.00;99.90
8099;DHT22;4092;47.876;9.372;2022-08-03T10:23:16;27.10;99.90
8099;DHT22;4092;47.876;9.372;2022-08-03T10:25:46;27.30;99.90
8099;DHT22;4092;47.876;9.372;2022-08-03T10:28:17;27.40;99.90
8099;DHT22;4092;47.876;9.372;2022-08-03T10:30:48;27.40;99.90
8099;DHT22;4092;47.876;9.372;2022-08-03T10:33:19;27.50;99.90
8099;DHT22;4092;47.876;9.372;2022-08-03T10:35:53;27.60;99.90
8099;DHT22;4092;47.876;9.372;2022-08-03T10:38:24;27.50;99.90
8099;DHT22;4092;47.876;9.372;2022-08-03T10:40:55;27.60;99.90
8099;DHT22;4092;47.876;9.372;2022-08-03T10:43:26;27.70;99.90
8099;DHT22;4092;47.876;9.372;2022-08-03T10:45:55;27.80;99.90
8099;DHT22;4092;47.876;9.372;2022-08-03T10:48:23;27.70;99.90
8099;DHT22;4092;47.876;9.372;2022-08-03T10:50:52;27.70;99.90
8099;DHT22;4092;47.876;9.372;2022-08-03T10:53:33;27.90;99.90
8099;DHT22;4092;47.876;9.372;2022-08-03T10:56:01;28.10;99.90
8099;DHT22;4092;47.876;9.372;2022-08-03T10:58:47;28.10;99.90
8099;DHT22;4092;47.876;9.372;2022-08-03T11:01:16;28.20;99.90
8099;DHT22;4092;47.876;9.372;2022-08-03T11:04:13;28.30;99.90
8099;DHT22;4092;47.876;9.372;2022-08-03T11:06:44;28.40;99.90
8099;DHT22;4092;47.876;9.372;2022-08-03T11:09:17;28.50;99.90
8099;DHT22;4092;47.876;9.372;2022-08-03T11:11:46;28.50;99.90
8099;DHT22;4092;47.876;9.372;2022-08-03T11:14:16;28.60;99.90
8099;DHT22;4092;47.876;9.372;2022-08-03T11:16:45;28.70;99.90
8099;DHT22;4092;47.876;9.372;2022-08-03T11:19:14;28.70;99.90
8099;DHT22;4092;47.876;9.372;2022-08-03T11:21:57;28.70;99.90
8099;DHT22;4092;47.876;9.372;2022-08-03T11:24:55;28.80;99.90
8099;DHT22;4092;47.876;9.372;2022-08-03T11:27:23;28.80;98.40
8099;DHT22;4092;47.876;9.372;2022-08-03T11:29:56;28.90;99.30
8099;DHT22;4092;47.876;9.372;2022-08-03T11:32:53;29.00;98.10
8099;DHT22;4092;47.876;9.372;2022-08-03T11:35:22;29.10;99.10
8099;DHT22;4092;47.876;9.372;2022-08-03T11:38:08;29.30;99.90
8099;DHT22;4092;47.876;9.372;2022-08-03T11:40:41;29.50;99.70
8099;DHT22;4092;47.876;9.372;2022-08-03T11:43:42;29.60;99.80
8099;DHT22;4092;47.876;9.372;2022-08-03T11:46:00;29.70;97.90
8099;DHT22;4092;47.876;9.372;2022-08-03T11:48:33;29.80;99.70
8099;DHT22;4092;47.876;9.372;2022-08-03T11:51:03;29.90;99.90
8099;DHT22;4092;47.876;9.372;2022-08-03T11:53:32;30.00;97.90
8099;DHT22;4092;47.876;9.372;2022-08-03T11:56:01;30.10;98.60
8099;DHT22;4092;47.876;9.372;2022-08-03T11:58:28;30.20;96.80
8099;DHT22;4092;47.876;9.372;2022-08-03T12:01:03;30.20;97.10
8099;DHT22;4092;47.876;9.372;2022-08-03T12:03:32;30.30;94.40
8099;DHT22;4092;47.876;9.372;2022-08-03T12:05:59;30.40;95.20
8099;DHT22;4092;47.876;9.372;2022-08-03T12:08:32;30.50;95.60
8099;DHT22;4092;47.876;9.372;2022-08-03T12:11:01;30.60;94.20
8099;DHT22;4092;47.876;9.372;2022-08-03T12:13:38;30.60;94.50
8099;DHT22;4092;47.876;9.372;2022-08-03T12:16:06;30.70;96.50
8099;DHT22;4092;47.876;9.372;2022-08-03T12:18:34;30.80;96.30
8099;DHT22;4092;47.876;9.372;2022-08-03T12:21:05;30.80;95.30
8099;DHT22;4092;47.876;9.372;2022-08-03T12:23:36;30.90;95.40
8099;DHT22;4092;47.876;9.372;2022-08-03T12:26:06;31.10;96.60
8099;DHT22;4092;47.876;9.372;2022-08-03T12:28:34;31.20;95.80
8099;DHT22;4092;47.876;9.372;2022-08-03T12:31:03;31.50;94.90
8099;DHT22;4092;47.876;9.372;2022-08-03T12:33:53;31.60;94.40
8099;DHT22;4092;47.876;9.372;2022-08-03T12:36:20;31.70;94.20
8099;DHT22;4092;47.876;9.372;2022-08-03T12:38:55;31.90;92.60
8099;DHT22;4092;47.876;9.372;2022-08-03T12:41:28;32.20;92.80
8099;DHT22;4092;47.876;9.372;2022-08-03T12:43:56;32.40;92.70
8099;DHT22;4092;47.876;9.372;2022-08-03T12:46:29;32.60;92.10
8099;DHT22;4092;47.876;9.372;2022-08-03T12:49:08;32.90;92.30
8099;DHT22;4092;47.876;9.372;2022-08-03T12:51:37;33.20;91.00
8099;DHT22;4092;47.876;9.372;2022-08-03T12:54:06;33.60;91.20
8099;DHT22;4092;47.876;9.372;2022-08-03T12:56:33;33.90;91.10
8099;DHT22;4092;47.876;9.372;2022-08-03T13:01:43;34.60;88.70
8099;DHT22;4092;47.876;9.372;2022-08-03T13:04:10;35.10;87.20
8099;DHT22;4092;47.876;9.372;2022-08-03T13:06:37;35.00;86.90
8099;DHT22;4092;47.876;9.372;2022-08-03T13:09:07;35.10;87.70
8099;DHT22;4092;47.876;9.372;2022-08-03T13:11:34;35.00;85.20
8099;DHT22;4092;47.876;9.372;2022-08-03T13:14:01;35.00;83.70
8099;DHT22;4092;47.876;9.372;2022-08-03T13:16:28;35.10;84.80
8099;DHT22;4092;47.876;9.372;2022-08-03T13:18:56;35.10;79.40
8099;DHT22;4092;47.876;9.372;2022-08-03T13:21:23;35.10;84.70
8099;DHT22;4092;47.876;9.372;2022-08-03T13:23:50;35.30;80.20
8099;DHT22;4092;47.876;9.372;2022-08-03T13:26:19;35.30;77.90
8099;DHT22;4092;47.876;9.372;2022-08-03T13:28:46;35.30;79.30
8099;DHT22;4092;47.876;9.372;2022-08-03T13:31:13;35.30;80.10
8099;DHT22;4092;47.876;9.372;2022-08-03T13:33:40;35.30;74.70
8099;DHT22;4092;47.876;9.372;2022-08-03T13:36:07;35.30;77.40
8099;DHT22;4092;47.876;9.372;2022-08-03T13:38:34;35.00;73.00
8099;DHT22;4092;47.876;9.372;2022-08-03T13:41:01;35.40;75.80
8099;DHT22;4092;47.876;9.372;2022-08-03T13:43:30;35.60;73.00
8099;DHT22;4092;47.876;9.372;2022-08-03T13:45:57;35.60;73.70
8099;DHT22;4092;47.876;9.372;2022-08-03T13:48:24;35.60;73.60
8099;DHT22;4092;47.876;9.372;2022-08-03T13:50:51;35.80;77.90
8099;DHT22;4092;47.876;9.372;2022-08-03T13:53:18;35.90;74.40
8099;DHT22;4092;47.876;9.372;2022-08-03T13:55:45;36.30;75.90
8099;DHT22;4092;47.876;9.372;2022-08-03T13:58:12;36.30;76.30
8099;DHT22;4092;47.876;9.372;2022-08-03T14:00:41;36.20;73.30
8099;DHT22;4092;47.876;9.372;2022-08-03T14:03:08;36.20;75.40
8099;DHT22;4092;47.876;9.372;2022-08-03T14:05:35;36.20;73.90
8099;DHT22;4092;47.876;9.372;2022-08-03T14:08:04;35.90;69.60
8099;DHT22;4092;47.876;9.372;2022-08-03T14:10:36;36.10;76.20
8099;DHT22;4092;47.876;9.372;2022-08-03T14:13:04;36.00;67.50
8099;DHT22;4092;47.876;9.372;2022-08-03T14:15:31;36.10;69.90
8099;DHT22;4092;47.876;9.372;2022-08-03T14:17:59;36.00;67.90
8099;DHT22;4092;47.876;9.372;2022-08-03T14:20:26;36.20;67.00
8099;DHT22;4092;47.876;9.372;2022-08-03T14:22:53;36.20;65.60
8099;DHT22;4092;47.876;9.372;2022-08-03T14:25:21;36.20;67.70
8099;DHT22;4092;47.876;9.372;2022-08-03T14:27:48;36.30;67.60
8099;DHT22;4092;47.876;9.372;2022-08-03T14:30:15;36.40;65.30
8099;DHT22;4092;47.876;9.372;2022-08-03T14:32:42;36.50;68.10
8099;DHT22;4092;47.876;9.372;2022-08-03T14:35:10;36.70;67.70
8099;DHT22;4092;47.876;9.372;2022-08-03T14:37:37;36.60;65.60
8099;DHT22;4092;47.876;9.372;2022-08-03T14:40:06;36.30;66.00
8099;DHT22;4092;47.876;9.372;2022-08-03T14:42:33;36.10;65.70
8099;DHT22;4092;47.876;9.372;2022-08-03T14:45:00;36.10;67.00
8099;DHT22;4092;47.876;9.372;2022-08-03T14:47:27;36.30;67.40
8099;DHT22;4092;47.876;9.372;2022-08-03T14:49:54;36.30;64.80
8099;DHT22;4092;47.876;9.372;2022-08-03T14:52:22;36.30;65.50
8099;DHT22;4092;47.876;9.372;2022-08-03T14:54:49;36.40;65.90
8099;DHT22;4092;47.876;9.372;2022-08-03T14:57:16;36.40;65.30
8099;DHT22;4092;47.876;9.372;2022-08-03T14:59:43;36.40;65.70
8099;DHT22;4092;47.876;9.372;2022-08-03T15:02:10;36.30;65.40
8099;DHT22;4092;47.876;9.372;2022-08-03T15:04:37;36.10;62.00
8099;DHT22;4092;47.876;9.372;2022-08-03T15:07:05;36.10;66.40
8099;DHT22;4092;47.876;9.372;2022-08-03T15:09:33;36.50;66.30
8099;DHT22;4092;47.876;9.372;2022-08-03T15:12:01;36.70;68.10
8099;DHT22;4092;47.876;9.372;2022-08-03T15:14:28;36.90;63.90
8099;DHT22;4092;47.876;9.372;2022-08-03T15:16:55;36.90;64.00
8099;DHT22;4092;47.876;9.372;2022-08-03T15:19:22;37.00;65.50
8099;DHT22;4092;47.876;9.372;2022-08-03T15:21:49;36.90;65.70
8099;DHT22;4092;47.876;9.372;2022-08-03T15:24:16;37.20;69.00
8099;DHT22;4092;47.876;9.372;2022-08-03T15:26:44;37.30;65.40
8099;DHT22;4092;47.876;9.372;2022-08-03T15:29:11;37.50;64.00
8099;DHT22;4092;47.876;9.372;2022-08-03T15:31:39;37.50;60.30
8099;DHT22;4092;47.876;9.372;2022-08-03T15:34:06;37.50;60.40
8099;DHT22;4092;47.876;9.372;2022-08-03T15:36:33;37.50;66.40
8099;DHT22;4092;47.876;9.372;2022-08-03T15:39:00;37.40;61.80
8099;DHT22;4092;47.876;9.372;2022-08-03T15:41:27;37.50;62.70
8099;DHT22;4092;47.876;9.372;2022-08-03T15:43:55;37.50;60.50
8099;DHT22;4092;47.876;9.372;2022-08-03T15:46:22;37.60;62.00
8099;DHT22;4092;47.876;9.372;2022-08-03T15:48:49;37.50;61.30
8099;DHT22;4092;47.876;9.372;2022-08-03T15:51:16;37.60;65.30
8099;DHT22;4092;47.876;9.372;2022-08-03T15:53:43;37.60;60.00
8099;DHT22;4092;47.876;9.372;2022-08-03T15:56:10;37.50;63.50
8099;DHT22;4092;47.876;9.372;2022-08-03T15:58:38;37.30;61.00
8099;DHT22;4092;47.876;9.372;2022-08-03T16:01:06;37.20;59.30
8099;DHT22;4092;47.876;9.372;2022-08-03T16:03:33;37.50;60.30
8099;DHT22;4092;47.876;9.372;2022-08-03T16:06:02;37.40;62.80
8099;DHT22;4092;47.876;9.372;2022-08-03T16:08:29;37.30;58.40
8099;DHT22;4092;47.876;9.372;2022-08-03T16:10:58;37.00;62.90
8099;DHT22;4092;47.876;9.372;2022-08-03T16:13:25;36.90;62.30
8099;DHT22;4092;47.876;9.372;2022-08-03T16:15:53;36.70;60.60
8099;DHT22;4092;47.876;9.372;2022-08-03T16:18:21;36.80;61.20